Alliance, OH (44601)

1:00 AM EDT on September 29, 2016 (GMT -0400)
Lexington Twp | | Change Station

Elev 1083 ft 40.94 °N, 81.17 °W | Updated 18 seconds ago

Light Rain
Light Rain Mist
56.0 °F
Feels Like 56.0 °F
N
3.0
Wind Variable Wind from WSW

Today
High -- | Low -- °F
--% Chance of Precip.
Yesterday
High -- | Low -- °F
Precip. -- in
Pressure 30.00 in
Visibility 6.0 miles
Clouds Overcast 1700 ft
Dew Point 54 °F
Humidity 93%
Rainfall 0.02 in
Snow Depth Not available.
7:19 AM 7:09 PM
Waning Crescent, 3% visible
METAR KCAK 290451Z 24004KT 6SM -RA BR OVC017 13/12 A3001 RMK AO2 RAB07 SLP157 P0001 T01330117 402220117
Pressure 30.00 in
Visibility 6.0 miles
Clouds Overcast 1700 ft
Dew Point 54 °F
Humidity 93%
Rainfall 0.02 in
Snow Depth Not available.
7:19 AM 7:09 PM
Waning Crescent, 3% visible
METAR KCAK 290451Z 24004KT 6SM -RA BR OVC017 13/12 A3001 RMK AO2 RAB07 SLP157 P0001 T01330117 402220117

10-Day Weather Forecast

Almanac

Astronomy

Sep. 29, 2016 Rise Set
Actual Time
Civil Twilight
Nautical Twilight
Astronomical Twilight
Moon
Length of Visible Light
Length of Day
Tomorrow will be .
, % of the Moon is Illuminated

Today's Extremes

State Highs State Lows

Community

WunderPhotos

Upload Photos

1,942,435 photos uploaded!

WunderBlog® & News

Nearby

Air Quality

  Air Quality AQ Index Pollutant
Not available.

Snow Depth

Station Depth Elevation

Earthquake Activity

City Distance Mag. Time & Date
Minimum magnitude displayed is 2.5.

Coastal Water Temperatures

Place Temperature

Stations

Nearby Weather Stations

Station Location Temp. Windchill Dew Point Humidity Wind Precip. Elev Updated Type
                   

Watches & Warnings

There are currently no watches in effect.